Terminal Aerodrome Forecast
Issued by NWS Sterling, VA

Current Version | Previous Version | Graphics & Text | Print | Product List | Glossary On
Versions: 1 2 3 4 5 6 7 8 9 10 11 12 13
473
FTUS41 KLWX 231125
TAFMRB
TAF
KMRB 231125Z 2312/2412 20008KT P6SM SCT040 OVC060
     FM231400 23012G19KT P6SM SCT040 BKN070
     FM231800 24013G21KT P6SM VCTS BKN050CB BKN100
     FM232300 23010KT P6SM BKN050 BKN100
     FM240000 22010KT P6SM -SHRA SCT050 BKN150
     FM240600 24006KT 3SM +SHRA OVC015
     FM240900 28007KT 5SM SHRA OVC015=

USA.gov is the U.S. government's official web portal to all federal, state and local government web resources and services.